createdAt,value
2023-01-11T00:01:54.488Z,2.65
2023-01-11T00:04:23.576Z,2.72
2023-01-11T00:06:50.819Z,4.82
2023-01-11T00:09:18.258Z,4.53
2023-01-11T00:11:45.309Z,6.07
2023-01-11T00:14:12.614Z,3.97
2023-01-11T00:16:39.710Z,7.43
2023-01-11T00:19:07.443Z,2.58
2023-01-11T00:21:34.547Z,1.85
2023-01-11T00:24:01.542Z,8.13
2023-01-11T00:26:28.569Z,4.88
2023-01-11T00:28:55.581Z,4.82
2023-01-11T00:31:22.697Z,5.63
2023-01-11T00:33:49.675Z,6.20
2023-01-11T00:36:16.833Z,6.13
2023-01-11T00:38:43.780Z,5.32
2023-01-11T00:41:31.780Z,6.32
2023-01-11T00:44:17.791Z,7.80
2023-01-11T00:47:03.523Z,5.50
2023-01-11T00:49:30.796Z,6.30
2023-01-11T00:51:57.853Z,5.32
2023-01-11T00:54:24.923Z,5.28
2023-01-11T00:56:51.875Z,6.40
2023-01-11T00:59:18.961Z,4.05
2023-01-11T01:01:45.925Z,9.07
2023-01-11T01:04:12.888Z,6.10
2023-01-11T01:06:39.886Z,2.42
2023-01-11T01:09:06.819Z,6.85
2023-01-11T01:11:33.811Z,2.65
2023-01-11T01:14:19.086Z,3.25
2023-01-11T01:16:47.645Z,4.55
2023-01-11T01:19:14.740Z,3.00
2023-01-11T01:21:41.936Z,7.55
2023-01-11T01:24:09.103Z,2.20
2023-01-11T01:26:36.339Z,5.78
2023-01-11T01:29:04.536Z,4.07
2023-01-11T01:31:31.666Z,4.10
2023-01-11T01:33:59.091Z,6.57
2023-01-11T01:36:26.307Z,6.63
2023-01-11T01:38:53.470Z,2.65
2023-01-11T01:41:20.765Z,7.50
2023-01-11T01:44:02.183Z,4.72
2023-01-11T01:46:34.246Z,2.58
2023-01-11T01:49:13.598Z,6.07
2023-01-11T01:51:55.039Z,7.75
2023-01-11T01:54:31.838Z,5.35
2023-01-11T01:57:05.393Z,9.82
2023-01-11T01:59:33.729Z,4.57
2023-01-11T02:02:01.701Z,7.97
2023-01-11T02:04:30.191Z,5.35
2023-01-11T02:07:00.247Z,5.45
2023-01-11T02:09:39.123Z,6.68
2023-01-11T02:12:07.726Z,2.22
2023-01-11T02:14:37.143Z,6.35
2023-01-11T02:17:04.246Z,7.15
2023-01-11T02:19:40.321Z,10.27
2023-01-11T02:22:29.344Z,8.27
2023-01-11T02:25:32.658Z,6.88
2023-01-11T02:28:29.183Z,6.15
2023-01-11T02:31:11.146Z,5.90
2023-01-11T02:33:41.001Z,8.55
2023-01-11T02:36:07.860Z,7.53
2023-01-11T02:38:45.005Z,7.93
2023-01-11T02:41:49.225Z,8.15
2023-01-11T02:44:40.580Z,4.40
2023-01-11T02:47:17.932Z,9.60
2023-01-11T02:49:56.824Z,11.57
2023-01-11T02:53:00.471Z,6.45
2023-01-11T02:55:33.051Z,7.45
2023-01-11T02:58:02.584Z,4.28
2023-01-11T03:00:30.507Z,7.03
2023-01-11T03:03:15.368Z,4.63
2023-01-11T03:06:00.473Z,9.98
2023-01-11T03:08:44.728Z,5.88
2023-01-11T03:11:45.501Z,10.07
2023-01-11T03:14:50.430Z,7.10
2023-01-11T03:17:23.356Z,5.43
2023-01-11T03:20:05.751Z,6.55
2023-01-11T03:22:50.848Z,7.35
2023-01-11T03:25:30.901Z,7.25
2023-01-11T03:28:07.007Z,7.78
2023-01-11T03:31:01.412Z,15.75
2023-01-11T03:33:46.939Z,4.93
2023-01-11T03:36:19.066Z,4.63
2023-01-11T03:38:54.848Z,5.10
2023-01-11T03:41:27.670Z,3.28
2023-01-11T03:43:57.265Z,3.92
2023-01-11T03:46:46.314Z,4.25
2023-01-11T03:49:28.396Z,6.30
2023-01-11T03:51:58.183Z,7.80
2023-01-11T03:54:28.779Z,9.32
2023-01-11T03:57:14.766Z,8.10
2023-01-11T03:59:41.999Z,6.80
2023-01-11T04:02:19.813Z,6.10
2023-01-11T04:04:47.224Z,2.47
2023-01-11T04:07:15.735Z,8.73
2023-01-11T04:09:43.254Z,3.92
2023-01-11T04:12:10.410Z,0.73
2023-01-11T04:14:37.845Z,4.10
2023-01-11T04:17:05.310Z,4.60
2023-01-11T04:19:32.382Z,1.33
2023-01-11T04:21:59.615Z,2.70
2023-01-11T04:24:26.681Z,6.15
2023-01-11T04:26:53.643Z,1.23
2023-01-11T04:29:20.721Z,4.05
2023-01-11T04:31:47.737Z,5.47
2023-01-11T04:34:15.063Z,5.07
2023-01-11T04:36:42.413Z,3.97
2023-01-11T04:39:12.728Z,7.25
2023-01-11T04:41:58.396Z,3.58
2023-01-11T04:44:25.472Z,2.50
2023-01-11T04:46:52.502Z,3.25
2023-01-11T04:49:19.609Z,1.23
2023-01-11T04:51:46.643Z,1.05
2023-01-11T04:54:13.678Z,1.40
2023-01-11T04:56:40.619Z,3.22
2023-01-11T04:59:07.679Z,2.20
2023-01-11T05:01:34.753Z,2.00
2023-01-11T05:04:01.772Z,4.40
2023-01-11T05:06:28.882Z,3.13
2023-01-11T05:08:56.228Z,3.63
2023-01-11T05:11:23.161Z,3.28
2023-01-11T05:13:50.225Z,2.45
2023-01-11T05:16:24.008Z,3.78
2023-01-11T05:18:54.240Z,4.15
2023-01-11T05:21:24.364Z,3.08
2023-01-11T05:23:52.714Z,3.03
2023-01-11T05:26:23.318Z,1.92
2023-01-11T05:28:51.321Z,0.60
2023-01-11T05:31:19.412Z,6.82
2023-01-11T05:33:46.565Z,1.77
2023-01-11T05:36:22.412Z,1.25
2023-01-11T05:38:51.342Z,5.30
2023-01-11T05:41:20.456Z,1.58
2023-01-11T05:44:07.966Z,3.88
2023-01-11T05:46:36.856Z,0.10
2023-01-11T05:49:06.490Z,2.22
2023-01-11T05:51:34.089Z,3.60
2023-01-11T05:54:02.611Z,0.93
2023-01-11T05:56:29.776Z,0.17
2023-01-11T05:58:57.279Z,1.23
2023-01-11T06:01:25.352Z,1.75
2023-01-11T06:03:52.766Z,5.47
2023-01-11T06:06:21.330Z,3.50
2023-01-11T06:08:48.486Z,1.02
2023-01-11T06:11:16.092Z,5.97
2023-01-11T06:13:43.273Z,1.85
2023-01-11T06:16:12.580Z,1.30
2023-01-11T06:18:42.545Z,3.55
2023-01-11T06:21:10.851Z,2.65
2023-01-11T06:23:40.927Z,2.33
2023-01-11T06:26:11.004Z,4.68
2023-01-11T06:28:38.429Z,2.95
2023-01-11T06:31:06.498Z,3.40
2023-01-11T06:33:34.370Z,3.35
2023-01-11T06:36:34.883Z,3.75
2023-01-11T06:39:02.147Z,3.05
2023-01-11T06:41:29.700Z,2.90
2023-01-11T06:43:56.962Z,1.83
2023-01-11T06:46:24.098Z,2.58
2023-01-11T06:48:51.222Z,3.65
2023-01-11T06:51:18.248Z,0.75
2023-01-11T06:53:46.608Z,1.30
2023-01-11T06:56:19.197Z,2.28
2023-01-11T06:58:48.357Z,2.08
2023-01-11T07:01:16.704Z,3.60
2023-01-11T07:03:45.510Z,0.68
2023-01-11T07:06:12.902Z,3.33
2023-01-11T07:08:40.064Z,2.47
2023-01-11T07:11:07.440Z,1.85
2023-01-11T07:13:34.505Z,1.02
2023-01-11T07:16:01.566Z,2.22
2023-01-11T07:18:31.736Z,0.60
2023-01-11T07:20:58.741Z,1.05
2023-01-11T07:23:26.131Z,2.28
2023-01-11T07:25:53.152Z,2.85
2023-01-11T07:28:20.335Z,1.05
2023-01-11T07:30:58.088Z,4.20
2023-01-11T07:33:26.668Z,2.08
2023-01-11T07:35:54.629Z,3.05
2023-01-11T07:38:22.374Z,1.63
2023-01-11T07:40:49.562Z,0.90
2023-01-11T07:43:18.384Z,2.10
2023-01-11T07:45:49.709Z,1.77
2023-01-11T07:48:24.866Z,1.92
2023-01-11T07:50:52.949Z,2.60
2023-01-11T07:53:20.546Z,2.42
2023-01-11T07:55:47.789Z,1.45
2023-01-11T07:58:15.348Z,1.35
2023-01-11T08:00:42.645Z,1.02
2023-01-11T08:03:10.373Z,1.95
2023-01-11T08:05:41.279Z,0.82
2023-01-11T08:08:08.694Z,0.85
2023-01-11T08:10:35.881Z,0.80
2023-01-11T08:13:21.395Z,0.45
2023-01-11T08:15:48.739Z,0.50
2023-01-11T08:18:17.328Z,1.45
2023-01-11T08:20:45.971Z,1.17
2023-01-11T08:23:12.955Z,0.93
2023-01-11T08:25:40.152Z,1.42
2023-01-11T08:28:08.254Z,0.28
2023-01-11T08:30:36.631Z,0.00
2023-01-11T08:33:05.280Z,0.15
2023-01-11T08:35:37.151Z,0.38
2023-01-11T08:38:04.268Z,0.77
2023-01-11T08:40:31.540Z,0.30
2023-01-11T08:42:58.995Z,0.43
2023-01-11T08:45:26.492Z,1.05
2023-01-11T08:47:54.204Z,0.43
2023-01-11T08:50:22.446Z,0.88
2023-01-11T08:52:51.453Z,0.43
2023-01-11T08:55:19.991Z,0.10
2023-01-11T08:57:47.348Z,0.60
2023-01-11T09:00:15.305Z,0.13
2023-01-11T09:02:42.479Z,1.58
2023-01-11T09:05:09.857Z,0.35
2023-01-11T09:07:36.918Z,0.40
2023-01-11T09:10:04.617Z,1.10
2023-01-11T09:12:32.901Z,0.47
2023-01-11T09:15:00.348Z,0.88
2023-01-11T09:17:28.700Z,0.50
2023-01-11T09:19:55.710Z,0.38
2023-01-11T09:22:22.861Z,2.53
2023-01-11T09:24:49.978Z,2.53
2023-01-11T09:27:17.328Z,0.80
2023-01-11T09:29:44.541Z,1.02
2023-01-11T09:32:11.966Z,0.10
2023-01-11T09:34:39.382Z,2.75
2023-01-11T09:37:07.319Z,0.40
2023-01-11T09:39:35.269Z,3.15
2023-01-11T09:42:37.230Z,2.45
2023-01-11T09:45:11.314Z,1.67
2023-01-11T09:47:51.285Z,3.08
2023-01-11T09:50:31.467Z,1.13
2023-01-11T09:53:08.415Z,0.50
2023-01-11T09:55:35.488Z,1.98
2023-01-11T09:58:16.259Z,2.78
2023-01-11T10:01:20.547Z,0.35
2023-01-11T10:03:58.787Z,0.90
2023-01-11T10:06:58.790Z,1.05
2023-01-11T10:18:31.655Z,1.35
2023-01-11T10:19:24.544Z,1.48
2023-01-11T10:22:02.276Z,1.80
2023-01-11T10:24:37.339Z,2.58
2023-01-11T10:27:10.762Z,3.17
2023-01-11T10:29:54.096Z,0.95
2023-01-11T10:32:51.570Z,2.10
2023-01-11T10:35:47.125Z,0.60
2023-01-11T10:39:11.256Z,1.38
2023-01-11T10:42:00.490Z,1.25
2023-01-11T10:44:46.751Z,1.55
2023-01-11T10:47:28.414Z,3.00
2023-01-11T10:50:04.218Z,2.13
2023-01-11T10:52:56.226Z,1.98
2023-01-11T10:58:25.171Z,1.88
2023-01-11T11:01:31.221Z,2.03
2023-01-11T11:04:22.750Z,3.00
2023-01-11T11:07:16.445Z,2.03
2023-01-11T11:10:08.400Z,3.60
2023-01-11T11:12:53.385Z,5.28
2023-01-11T11:15:50.711Z,6.70
2023-01-11T11:18:18.568Z,3.38
2023-01-11T11:20:47.357Z,2.83
2023-01-11T11:23:18.008Z,3.20
2023-01-11T11:25:57.016Z,2.25
2023-01-11T11:28:27.906Z,2.33
2023-01-11T11:31:03.790Z,3.22
2023-01-11T11:33:38.399Z,4.57
2023-01-11T11:36:08.201Z,6.95
2023-01-11T11:38:36.713Z,0.38
2023-01-11T11:41:08.768Z,0.40
2023-01-11T11:43:41.404Z,0.30
2023-01-11T11:46:18.770Z,0.45
2023-01-11T11:49:15.831Z,0.57
2023-01-11T11:51:45.720Z,2.67
2023-01-11T11:54:30.048Z,2.05
2023-01-11T11:57:00.403Z,0.47
2023-01-11T11:59:30.590Z,1.70
2023-01-11T12:02:03.700Z,1.05
2023-01-11T12:05:05.556Z,0.70
2023-01-11T12:07:54.940Z,2.70
2023-01-11T12:10:27.972Z,1.45
2023-01-11T12:13:00.484Z,0.40
2023-01-11T12:15:33.011Z,0.77
2023-01-11T12:18:26.707Z,1.48
2023-01-11T12:20:54.869Z,1.83
2023-01-11T12:23:24.491Z,0.20
2023-01-11T12:26:17.617Z,0.85
2023-01-11T12:29:03.288Z,0.95
2023-01-11T12:31:45.515Z,0.10
2023-01-11T12:34:51.432Z,0.50
2023-01-11T12:37:30.502Z,0.55
2023-01-11T12:40:55.032Z,0.28
2023-01-11T12:43:52.655Z,0.00
2023-01-11T12:46:53.115Z,0.43
2023-01-11T12:50:07.395Z,0.52
2023-01-11T12:52:39.255Z,0.10
2023-01-11T12:55:30.391Z,1.25
2023-01-11T12:58:08.405Z,0.55
2023-01-11T13:01:21.035Z,0.28
2023-01-11T13:04:18.167Z,0.43
2023-01-11T13:07:10.051Z,0.88
2023-01-11T13:09:58.126Z,1.75
2023-01-11T13:13:01.544Z,1.08
2023-01-11T13:15:53.687Z,2.05
2023-01-11T13:18:43.899Z,0.20
2023-01-11T13:21:35.973Z,0.60
2023-01-11T13:24:10.815Z,0.80
2023-01-11T13:26:45.698Z,1.10
2023-01-11T13:29:27.819Z,0.50
2023-01-11T13:31:59.675Z,0.32
2023-01-11T13:34:45.400Z,0.20
2023-01-11T13:37:36.820Z,0.25
2023-01-11T13:40:18.842Z,0.20
2023-01-11T13:42:51.115Z,0.80
2023-01-11T13:45:21.125Z,0.17
2023-01-11T13:47:57.187Z,0.10
2023-01-11T13:51:12.318Z,0.43
2023-01-11T13:53:58.414Z,0.10
2023-01-11T13:56:39.861Z,0.10
2023-01-11T13:59:19.227Z,0.20
2023-01-11T14:02:13.841Z,0.95
2023-01-11T14:04:56.638Z,0.43
2023-01-11T14:07:53.342Z,0.65
2023-01-11T14:10:36.980Z,0.13
2023-01-11T14:13:13.282Z,0.98
2023-01-11T14:18:45.197Z,0.57
2023-01-11T14:21:24.804Z,0.10
2023-01-11T14:23:56.438Z,0.15
2023-01-11T14:26:35.376Z,0.82
2023-01-11T14:29:17.604Z,0.63
2023-01-11T14:32:19.038Z,0.40
2023-01-11T14:34:53.473Z,0.55
2023-01-11T14:37:55.727Z,0.63
2023-01-11T14:40:31.663Z,0.47
2023-01-11T14:43:30.897Z,1.80
2023-01-11T14:46:16.690Z,0.68
2023-01-11T14:48:49.543Z,1.42
2023-01-11T14:51:32.495Z,0.43
2023-01-11T14:54:38.613Z,0.75
2023-01-11T14:57:05.990Z,2.00
2023-01-11T14:59:35.789Z,0.10
2023-01-11T15:02:06.011Z,2.13
2023-01-11T15:04:59.084Z,0.13
2023-01-11T15:07:29.133Z,1.60
2023-01-11T15:09:58.530Z,1.92
2023-01-11T15:12:37.946Z,0.30
2023-01-11T15:15:13.841Z,0.50
2023-01-11T15:18:00.665Z,0.20
2023-01-11T15:20:28.574Z,0.80
2023-01-11T15:23:06.407Z,0.70
2023-01-11T15:25:34.973Z,1.35
2023-01-11T15:28:26.201Z,1.10
2023-01-11T15:30:53.498Z,1.33
2023-01-11T15:33:20.960Z,1.35
2023-01-11T15:35:57.360Z,1.02
2023-01-11T15:38:28.461Z,2.42
2023-01-11T15:40:57.233Z,5.15
2023-01-11T15:43:53.410Z,3.65
2023-01-11T15:46:50.681Z,0.77
2023-01-11T15:49:44.002Z,4.15
2023-01-11T15:52:55.530Z,3.70
2023-01-11T15:55:53.413Z,2.10
2023-01-11T15:58:21.365Z,3.53
2023-01-11T16:00:59.072Z,1.77
2023-01-11T16:03:50.012Z,1.65
2023-01-11T16:06:32.646Z,1.77
2023-01-11T16:09:18.430Z,3.67
2023-01-11T16:12:22.469Z,3.05
2023-01-11T16:15:30.111Z,1.17
2023-01-11T16:20:29.738Z,2.40
2023-01-11T16:23:02.402Z,5.50
2023-01-11T16:25:37.147Z,1.00
2023-01-11T16:28:05.127Z,2.47
2023-01-11T16:30:33.552Z,1.10
2023-01-11T16:33:21.415Z,3.42
2023-01-11T16:35:49.205Z,2.60
2023-01-11T16:38:22.679Z,2.15
2023-01-11T16:40:52.853Z,1.85
2023-01-11T16:43:22.812Z,2.53
2023-01-11T16:45:54.376Z,3.30
2023-01-11T16:48:30.014Z,2.35
2023-01-11T16:51:02.156Z,4.57
2023-01-11T16:53:32.194Z,2.33
2023-01-11T16:56:09.630Z,6.15
2023-01-11T16:58:38.658Z,1.17
2023-01-11T17:01:11.787Z,5.80
2023-01-11T17:03:45.782Z,0.73
2023-01-11T17:06:12.730Z,0.50
2023-01-11T17:08:48.319Z,2.47
2023-01-11T17:11:23.836Z,4.70
2023-01-11T17:14:32.890Z,2.72
2023-01-11T17:17:07.099Z,4.15
2023-01-11T17:19:43.453Z,2.97
2023-01-11T17:22:32.507Z,3.97
2023-01-11T17:25:03.001Z,4.32
2023-01-11T17:27:43.508Z,5.03
2023-01-11T17:30:37.287Z,3.88
2023-01-11T17:33:04.539Z,2.65
2023-01-11T17:35:42.399Z,3.42
2023-01-11T17:38:17.019Z,1.13
2023-01-11T17:40:45.483Z,5.88
2023-01-11T17:43:40.658Z,1.92
2023-01-11T17:46:22.285Z,5.50
2023-01-11T17:48:58.220Z,1.73
2023-01-11T17:51:35.516Z,2.85
2023-01-11T17:54:02.745Z,5.65
2023-01-11T17:56:38.007Z,3.03
2023-01-11T17:59:24.287Z,2.50
2023-01-11T18:01:59.625Z,3.42
2023-01-11T18:04:28.561Z,6.87
2023-01-11T18:07:04.993Z,3.88
2023-01-11T18:09:36.075Z,3.47
2023-01-11T18:12:09.021Z,5.35
2023-01-11T18:14:46.821Z,6.22
2023-01-11T18:17:32.572Z,4.72
2023-01-11T18:20:00.930Z,0.93
2023-01-11T18:22:53.805Z,1.95
2023-01-11T18:25:22.357Z,1.70
2023-01-11T18:27:49.832Z,3.33
2023-01-11T18:30:32.109Z,2.53
2023-01-11T18:33:02.147Z,7.18
2023-01-11T18:35:30.233Z,4.65
2023-01-11T18:37:57.363Z,4.88
2023-01-11T18:40:24.221Z,5.13
2023-01-11T18:42:53.592Z,6.05
2023-01-11T18:45:21.955Z,9.05
2023-01-11T18:47:49.371Z,6.35
2023-01-11T18:50:19.555Z,3.85
2023-01-11T18:52:46.696Z,7.32
2023-01-11T18:55:14.780Z,4.53
2023-01-11T18:57:42.533Z,5.75
2023-01-11T19:00:14.262Z,4.07
2023-01-11T19:02:43.419Z,6.13
2023-01-11T19:05:15.617Z,3.13
2023-01-11T19:07:43.066Z,1.92
2023-01-11T19:10:14.245Z,3.45
2023-01-11T19:12:41.349Z,3.50
2023-01-11T19:15:08.949Z,3.08
2023-01-11T19:17:36.874Z,8.63
2023-01-11T19:20:04.899Z,9.70
2023-01-11T19:22:31.968Z,3.55
2023-01-11T19:24:58.977Z,4.65
2023-01-11T19:27:25.956Z,5.78
2023-01-11T19:29:54.063Z,2.70
2023-01-11T19:32:25.479Z,3.92
2023-01-11T19:34:53.534Z,3.03
2023-01-11T19:37:20.842Z,6.13
2023-01-11T19:39:48.534Z,4.95
2023-01-11T19:42:15.540Z,3.47
2023-01-11T19:44:42.581Z,4.82
2023-01-11T19:47:13.290Z,6.28
2023-01-11T19:49:41.549Z,2.55
2023-01-11T19:52:13.614Z,4.28
2023-01-11T19:54:42.560Z,4.13
2023-01-11T19:57:15.065Z,2.20
2023-01-11T19:59:42.675Z,2.55
2023-01-11T20:02:13.063Z,3.10
2023-01-11T20:04:41.798Z,2.63
2023-01-11T20:07:10.323Z,7.57
2023-01-11T20:09:38.117Z,4.63
2023-01-11T20:12:09.496Z,5.28
2023-01-11T20:14:37.874Z,4.43
2023-01-11T20:17:05.233Z,2.70
2023-01-11T20:19:32.202Z,4.43
2023-01-11T20:21:59.315Z,2.70
2023-01-11T20:24:28.447Z,3.00
2023-01-11T20:26:56.918Z,3.35
2023-01-11T20:29:24.178Z,1.88
2023-01-11T20:31:51.281Z,2.47
2023-01-11T20:34:19.306Z,1.17
2023-01-11T20:36:46.781Z,3.13
2023-01-11T20:39:14.099Z,2.15
2023-01-11T20:41:46.885Z,4.22
2023-01-11T20:44:16.439Z,2.83
2023-01-11T20:46:46.835Z,0.75
2023-01-11T20:49:15.402Z,1.45
2023-01-11T20:51:43.039Z,0.65
2023-01-11T20:54:10.553Z,0.93
2023-01-11T20:56:38.920Z,1.08
2023-01-11T20:59:08.028Z,1.10
2023-01-11T21:01:36.391Z,1.10
2023-01-11T21:04:06.752Z,1.90
2023-01-11T21:06:36.343Z,0.50
2023-01-11T21:09:04.683Z,0.75
2023-01-11T21:11:32.549Z,1.25
2023-01-11T21:14:01.036Z,3.25
2023-01-11T21:16:29.638Z,3.03
2023-01-11T21:18:59.635Z,2.75
2023-01-11T21:21:28.546Z,9.65
2023-01-11T21:23:58.039Z,7.78
2023-01-11T21:26:26.333Z,7.28
2023-01-11T21:28:59.625Z,5.25
2023-01-11T21:31:34.945Z,2.72
2023-01-11T21:34:03.101Z,2.20
2023-01-11T21:36:31.688Z,2.78
2023-01-11T21:38:59.898Z,2.63
2023-01-11T21:41:50.894Z,1.80
2023-01-11T21:44:19.324Z,5.18
2023-01-11T21:46:47.135Z,4.57
2023-01-11T21:49:14.870Z,3.10
2023-01-11T21:51:44.294Z,2.25
2023-01-11T21:54:13.804Z,3.10
2023-01-11T21:56:43.940Z,1.70
2023-01-11T21:59:11.259Z,1.98
2023-01-11T22:01:40.314Z,1.05
2023-01-11T22:04:13.767Z,2.13
2023-01-11T22:06:43.116Z,2.03
2023-01-11T22:09:11.575Z,0.52
2023-01-11T22:11:39.514Z,0.50
2023-01-11T22:14:08.692Z,0.35
2023-01-11T22:16:36.989Z,0.38
2023-01-11T22:19:07.370Z,0.20
2023-01-11T22:21:36.960Z,0.30
2023-01-11T22:24:06.853Z,0.28
2023-01-11T22:26:37.738Z,0.17
2023-01-11T22:29:15.410Z,0.13
2023-01-11T22:31:47.555Z,0.40
2023-01-11T22:34:15.365Z,0.70
2023-01-11T22:36:43.165Z,0.85
2023-01-11T22:39:14.267Z,0.20
2023-01-11T22:41:41.569Z,0.65
2023-01-11T22:44:09.543Z,0.20
2023-01-11T22:46:36.658Z,1.30
2023-01-11T22:49:06.234Z,0.68
2023-01-11T22:51:36.112Z,0.57
2023-01-11T22:54:04.161Z,0.75
2023-01-11T22:56:31.766Z,0.95
2023-01-11T22:59:00.061Z,0.50
2023-01-11T23:01:29.899Z,1.02
2023-01-11T23:03:58.420Z,0.80
2023-01-11T23:06:28.087Z,0.10
2023-01-11T23:08:55.671Z,1.00
2023-01-11T23:11:47.159Z,0.10
2023-01-11T23:14:17.872Z,0.20
2023-01-11T23:16:46.215Z,0.45
2023-01-11T23:19:15.306Z,2.33
2023-01-11T23:21:44.433Z,1.45
2023-01-11T23:24:13.357Z,1.13
2023-01-11T23:26:40.649Z,0.98
2023-01-11T23:29:09.336Z,0.63
2023-01-11T23:31:36.630Z,1.38
2023-01-11T23:34:07.231Z,2.35
2023-01-11T23:36:36.832Z,0.32
2023-01-11T23:39:05.196Z,0.52
2023-01-11T23:41:50.592Z,0.00
2023-01-11T23:44:18.359Z,1.10
2023-01-11T23:47:04.320Z,0.00
2023-01-11T23:49:32.483Z,2.45
2023-01-11T23:52:00.250Z,0.63
2023-01-11T23:54:30.897Z,0.65
2023-01-11T23:56:59.086Z,1.45
2023-01-11T23:59:26.517Z,0.35
